Time;durP1;ratioP1;P1;durP2;ratioP2;P2;SDS_P1;SDS_P2;PMS_P1;PMS_P2;Temp;Humidity;BMP_temperature;BMP_pressure;BME280_temperature;BME280_humidity;BME280_pressure;Samples;Min_cycle;Max_cycle;Signal;HPM_P1;HPM_P2
2022/12/01 00:00:43;;;;;;;38.38;25.17;;;;;;;5.19;100.00;102638.69;5030224;28;20108;-56
2022/12/01 00:03:08;;;;;;;40.00;25.90;;;;;;;5.20;100.00;102640.44;5025849;28;20120;-56
2022/12/01 00:05:34;;;;;;;41.60;24.27;;;;;;;5.18;100.00;102637.81;5022587;28;20030;-54
2022/12/01 00:08:00;;;;;;;38.78;25.75;;;;;;;5.16;100.00;102637.00;5031019;28;20029;-54
2022/12/01 00:10:27;;;;;;;38.72;25.08;;;;;;;5.18;100.00;102629.06;5029908;28;20064;-56
2022/12/01 00:12:56;;;;;;;42.50;24.90;;;;;;;5.17;100.00;102628.19;5030197;28;20030;-52
2022/12/01 00:15:22;;;;;;;;;;;;;;;5.27;100.00;102634.09;5030655;28;20029;-54
2022/12/01 00:17:48;;;;;;;40.03;24.73;;;;;;;5.18;100.00;102635.19;5037093;28;19909;-53
2022/12/01 00:20:15;;;;;;;37.88;24.98;;;;;;;5.17;100.00;102633.44;5029817;28;20025;-54
2022/12/01 00:22:44;;;;;;;38.47;25.90;;;;;;;5.19;100.00;102633.41;5034329;28;20022;-54
2022/12/01 00:25:11;;;;;;;39.13;25.88;;;;;;;5.18;100.00;102626.44;5033626;28;20030;-52
2022/12/01 00:27:37;;;;;;;40.00;25.20;;;;;;;5.18;100.00;102624.66;5032335;28;20084;-55
2022/12/01 00:30:04;;;;;;;38.70;25.10;;;;;;;5.17;100.00;102630.81;5033382;28;20447;-53
2022/12/01 00:32:30;;;;;;;38.58;25.77;;;;;;;5.19;100.00;102626.38;5033396;28;20218;-56
2022/12/01 00:34:55;;;;;;;41.28;26.00;;;;;;;5.18;100.00;102629.94;5033808;28;20028;-55
2022/12/01 00:37:20;;;;;;;40.78;25.75;;;;;;;5.17;100.00;102630.81;5033975;28;20067;-53
2022/12/01 00:39:45;;;;;;;37.83;25.30;;;;;;;5.19;100.00;102630.78;5033360;28;20389;-55
2022/12/01 00:42:11;;;;;;;42.75;27.52;;;;;;;5.18;100.00;102629.94;5041897;28;20026;-53
2022/12/01 00:44:36;;;;;;;41.47;26.65;;;;;;;5.19;100.00;102633.41;5033381;28;20367;-52
2022/12/01 00:47:01;;;;;;;42.78;26.58;;;;;;;5.20;100.00;102629.88;5033681;28;20117;-54
2022/12/01 00:49:27;;;;;;;39.30;26.45;;;;;;;5.19;100.00;102628.16;5033510;28;20033;-55
2022/12/01 00:51:52;;;;;;;42.28;25.77;;;;;;;5.21;100.00;102628.09;5030876;28;20026;-55
2022/12/01 00:54:17;;;;;;;46.17;27.88;;;;;;;5.20;100.00;102629.88;5036798;28;20049;-52
2022/12/01 00:56:43;;;;;;;40.40;26.45;;;;;;;5.18;100.00;102635.19;5033144;28;20498;-56
2022/12/01 00:59:08;;;;;;;43.33;26.77;;;;;;;5.17;100.00;102630.81;5028627;28;20450;-53
2022/12/01 01:01:33;;;;;;;44.03;26.05;;;;;;;5.17;100.00;102629.97;5031419;28;20486;-52
2022/12/01 01:03:59;;;;;;;43.60;27.25;;;;;;;5.17;100.00;102633.44;5033079;28;20537;-53
2022/12/01 01:06:24;;;;;;;46.33;27.30;;;;;;;5.16;100.00;102636.13;5018450;28;20100;-55
2022/12/01 01:08:49;;;;;;;47.35;28.52;;;;;;;5.14;100.00;102630.88;5028670;28;20033;-54
2022/12/01 01:11:15;;;;;;;51.50;28.45;;;;;;;5.13;100.00;102636.19;5032923;28;20506;-55
2022/12/01 01:13:40;;;;;;;48.63;28.55;;;;;;;5.13;100.00;102647.63;5027830;28;20052;-55
2022/12/01 01:16:12;;;;;;;51.65;28.92;;;;;;;5.11;100.00;102648.53;5027779;28;20057;-52
2022/12/01 01:18:37;;;;;;;50.92;29.17;;;;;;;5.10;100.00;102646.84;5032721;28;20077;-53
2022/12/01 01:21:06;;;;;;;55.25;29.45;;;;;;;5.10;100.00;102641.56;5032716;28;20060;-53
2022/12/01 01:23:31;;;;;;;57.60;29.80;;;;;;;5.09;100.00;102645.09;5033217;28;20022;-53
2022/12/01 01:26:02;;;;;;;48.78;27.38;;;;;;;5.10;100.00;102652.09;5032971;28;20018;-55
2022/12/01 01:28:27;;;;;;;53.75;28.70;;;;;;;5.07;100.00;102647.75;5037992;28;20383;-55
2022/12/01 01:30:52;;;;;;;56.92;29.63;;;;;;;5.08;100.00;102660.03;5032759;28;20030;-52
2022/12/01 01:33:17;;;;;;;51.70;28.30;;;;;;;5.06;100.00;102661.81;5032361;28;20026;-53
2022/12/01 01:35:43;;;;;;;47.63;28.55;;;;;;;5.07;100.00;102662.72;5032259;28;20503;-54
2022/12/01 01:38:08;;;;;;;48.85;27.90;;;;;;;5.08;100.00;102664.41;5032905;28;20032;-53
2022/12/01 01:40:33;;;;;;;55.35;28.73;;;;;;;5.08;100.00;102662.66;5032507;28;20025;-52
2022/12/01 01:42:58;;;;;;;48.67;27.65;;;;;;;5.08;100.00;102667.06;5032340;28;20033;-54
2022/12/01 01:45:28;;;;;;;52.03;27.58;;;;;;;5.07;100.00;102665.34;5032449;28;20022;-55
2022/12/01 01:47:55;;;;;;;47.88;26.55;;;;;;;5.07;100.00;102665.34;5032739;28;20471;-53
2022/12/01 01:50:24;;;;;;;47.95;26.58;;;;;;;5.08;100.00;102661.78;5031742;28;20064;-55
2022/12/01 01:53:01;;;;;;;49.17;26.10;;;;;;;5.09;100.00;102663.53;5032593;28;20379;-53
2022/12/01 01:55:28;;;;;;;45.72;25.55;;;;;;;5.06;100.00;102666.22;5022961;28;20431;-53
2022/12/01 01:57:54;;;;;;;47.92;26.52;;;;;;;5.06;100.00;102656.56;5032248;28;20104;-55
2022/12/01 02:00:20;;;;;;;50.08;26.13;;;;;;;5.06;100.00;102669.72;5041164;28;20116;-54
2022/12/01 02:02:47;;;;;;;44.10;25.55;;;;;;;5.06;100.00;102669.72;5032705;28;20427;-53
2022/12/01 02:05:21;;;;;;;46.05;27.17;;;;;;;5.07;100.00;102671.47;5032066;28;20030;-54
2022/12/01 02:07:48;;;;;;;46.25;25.48;;;;;;;5.06;100.00;102663.59;5032116;28;20057;-55
2022/12/01 02:10:21;;;;;;;51.28;26.77;;;;;;;5.06;100.00;102658.31;5024634;28;20033;-54
2022/12/01 02:13:15;;;;;;;49.15;26.85;;;;;;;5.08;100.00;102667.94;5024801;28;20033;-53
2022/12/01 02:15:58;;;;;;;48.10;26.25;;;;;;;5.07;100.00;102668.81;5031548;28;20044;-55
2022/12/01 02:18:30;;;;;;;47.83;26.25;;;;;;;5.07;100.00;102660.06;5032092;28;20132;-52
2022/12/01 02:21:24;;;;;;;52.85;27.58;;;;;;;5.08;100.00;102665.31;5031810;28;20024;-53
2022/12/01 02:24:21;;;;;;;51.83;27.92;;;;;;;5.08;100.00;102673.22;5034092;28;20072;-52
2022/12/01 02:26:55;;;;;;;49.90;26.92;;;;;;;5.09;100.00;102664.38;5033236;28;20427;-54
2022/12/01 02:29:26;;;;;;;53.25;28.17;;;;;;;5.09;100.00;102660.91;5030652;28;20033;-53
2022/12/01 02:32:12;;;;;;;47.45;27.58;;;;;;;5.11;100.00;102661.72;5031359;28;20036;-55
2022/12/01 02:34:56;;;;;;;51.25;27.00;;;;;;;5.10;100.00;102660.84;5030790;28;20171;-52
2022/12/01 02:37:39;;;;;;;52.90;28.10;;;;;;;5.09;100.00;102664.38;5021527;28;20028;-52
2022/12/01 02:40:35;;;;;;;55.00;29.13;;;;;;;5.09;100.00;102664.38;5030965;28;20483;-53
2022/12/01 02:43:06;;;;;;;51.28;28.92;;;;;;;5.06;100.00;102668.88;5030804;28;20030;-53
2022/12/01 02:45:36;;;;;;;52.10;29.05;;;;;;;5.07;100.00;102666.19;5031135;28;20490;-52
2022/12/01 02:48:03;;;;;;;;;;;;;;;5.14;100.00;102661.66;5028069;28;20487;-55
2022/12/01 02:50:32;;;;;;;54.72;28.42;;;;;;;5.08;100.00;102665.31;5031571;28;19913;-53
2022/12/01 02:53:00;;;;;;;54.30;28.80;;;;;;;5.09;100.00;102666.16;5031088;28;20076;-55
2022/12/01 02:55:25;;;;;;;54.05;29.52;;;;;;;5.09;100.00;102663.53;5030964;28;20029;-52
2022/12/01 02:57:50;;;;;;;52.85;28.65;;;;;;;5.09;100.00;102663.53;5030949;28;20029;-53
2022/12/01 03:00:16;;;;;;;57.78;29.08;;;;;;;5.08;100.00;102665.31;5031139;28;20477;-55
2022/12/01 03:03:01;;;;;;;58.92;30.10;;;;;;;5.08;100.00;102659.16;5030339;28;20124;-53
2022/12/01 03:06:08;;;;;;;57.00;30.17;;;;;;;5.11;100.00;102670.50;5031096;28;20416;-54
2022/12/01 03:08:46;;;;;;;52.33;28.52;;;;;;;5.08;100.00;102672.31;5031594;28;20036;-53
2022/12/01 03:11:28;;;;;;;52.85;29.60;;;;;;;5.07;100.00;102662.72;5030921;28;20410;-52
2022/12/01 03:14:21;;;;;;;53.30;29.65;;;;;;;5.09;100.00;102667.00;5030981;28;20438;-54
2022/12/01 03:16:50;;;;;;;54.35;29.13;;;;;;;5.09;100.00;102674.06;4995730;28;20072;-54
2022/12/01 03:19:28;;;;;;;47.28;27.70;;;;;;;5.09;100.00;102661.75;5030283;28;20036;-52
2022/12/01 03:22:22;;;;;;;50.45;28.45;;;;;;;5.11;100.00;102667.88;5030943;28;20064;-52
2022/12/01 03:24:50;;;;;;;51.22;29.25;;;;;;;5.08;100.00;102664.41;5019414;28;20499;-53
2022/12/01 03:27:20;;;;;;;53.03;29.83;;;;;;;5.06;100.00;102664.44;5030623;28;20044;-52
2022/12/01 03:29:48;;;;;;;48.88;28.23;;;;;;;5.06;100.00;102661.81;5031050;28;20124;-56
2022/12/01 03:32:24;;;;;;;52.08;29.75;;;;;;;5.05;100.00;102668.00;5025702;28;20065;-52
2022/12/01 03:35:09;;;;;;;50.70;29.75;;;;;;;5.07;100.00;102665.34;5030883;28;20038;-55
2022/12/01 03:37:41;;;;;;;50.88;28.65;;;;;;;5.03;100.00;102661.91;5030940;28;20521;-52
2022/12/01 03:40:13;;;;;;;52.28;29.13;;;;;;;5.05;100.00;102669.78;5030729;28;20037;-53
2022/12/01 03:42:48;;;;;;;55.55;29.50;;;;;;;5.06;100.00;102666.22;5030172;28;20060;-54
2022/12/01 03:45:23;;;;;;;48.05;29.80;;;;;;;5.04;100.00;102660.16;5030557;28;20028;-52
2022/12/01 03:47:50;;;;;;;49.38;27.25;;;;;;;5.05;100.00;102675.06;5030085;28;20037;-51
2022/12/01 03:50:17;;;;;;;52.85;29.02;;;;;;;5.06;100.00;102656.56;5029936;28;20033;-53
2022/12/01 03:52:54;;;;;;;51.10;28.52;;;;;;;5.06;100.00;102667.09;5030238;28;20471;-54
2022/12/01 03:55:23;;;;;;;51.60;29.40;;;;;;;5.05;100.00;102665.38;5030261;28;20104;-53
2022/12/01 03:57:55;;;;;;;49.03;28.95;;;;;;;5.05;100.00;102668.00;5030453;28;20065;-52
2022/12/01 04:00:21;;;;;;;46.17;28.42;;;;;;;5.06;100.00;102672.34;5028511;28;20472;-54
2022/12/01 04:02:47;;;;;;;54.83;30.10;;;;;;;5.09;100.00;102672.28;5030385;28;20025;-52
2022/12/01 04:05:13;;;;;;;50.33;29.55;;;;;;;5.08;100.00;102678.47;5030079;28;20079;-53
2022/12/01 04:07:39;;;;;;;52.25;29.55;;;;;;;5.09;100.00;102671.44;5029932;28;20529;-53
2022/12/01 04:10:05;;;;;;;51.80;29.67;;;;;;;5.08;100.00;102664.41;5030370;28;20108;-52
2022/12/01 04:12:32;;;;;;;47.70;28.25;;;;;;;5.10;100.00;102670.53;5029612;28;20033;-55
2022/12/01 04:15:07;;;;;;;49.58;29.80;;;;;;;5.10;100.00;102674.03;5029966;28;20029;-53
2022/12/01 04:17:32;;;;;;;50.00;29.00;;;;;;;5.10;100.00;102676.66;5028673;28;20017;-53
2022/12/01 04:19:58;;;;;;;51.22;29.05;;;;;;;5.10;100.00;102679.28;5022856;28;20032;-52
2022/12/01 04:22:24;;;;;;;48.78;29.23;;;;;;;5.10;100.00;102674.03;5029349;28;20029;-53
2022/12/01 04:24:49;;;;;;;47.22;28.38;;;;;;;5.13;100.00;102673.06;5030659;28;20045;-56
2022/12/01 04:27:14;;;;;;;50.25;28.70;;;;;;;5.12;100.00;102674.00;5029779;28;20048;-53
2022/12/01 04:29:40;;;;;;;49.38;28.60;;;;;;;5.11;100.00;102673.13;5030387;28;20029;-54
2022/12/01 04:32:05;;;;;;;48.45;28.02;;;;;;;5.11;100.00;102670.50;5029576;28;20032;-52
2022/12/01 04:34:30;;;;;;;50.67;28.35;;;;;;;5.12;100.00;102677.47;5031312;28;20052;-53
2022/12/01 04:36:56;;;;;;;48.38;28.73;;;;;;;5.11;100.00;102673.13;5029345;28;20040;-53
2022/12/01 04:39:21;;;;;;;48.55;29.30;;;;;;;5.13;100.00;102678.34;5029749;28;20018;-55
2022/12/01 04:41:47;;;;;;;50.78;29.10;;;;;;;5.12;100.00;102672.22;5029604;28;20061;-54
2022/12/01 04:44:13;;;;;;;53.00;29.73;;;;;;;5.12;100.00;102679.25;5029593;28;20029;-53
2022/12/01 04:46:39;;;;;;;45.67;27.58;;;;;;;5.11;100.00;102669.63;5029529;28;20072;-54
2022/12/01 04:49:04;;;;;;;46.95;28.52;;;;;;;5.11;100.00;102672.25;5029612;28;20080;-52
2022/12/01 04:51:30;;;;;;;50.13;28.95;;;;;;;5.11;100.00;102667.88;5029949;28;20483;-55
2022/12/01 04:53:55;;;;;;;46.17;28.55;;;;;;;5.11;100.00;102674.88;5029731;28;20033;-53
2022/12/01 04:56:21;;;;;;;48.17;28.88;;;;;;;5.11;100.00;102672.25;5024742;28;20025;-50
2022/12/01 04:58:47;;;;;;;50.03;29.02;;;;;;;5.12;100.00;102672.22;5029210;28;20026;-53
2022/12/01 05:01:15;;;;;;;48.55;27.63;;;;;;;5.11;100.00;102664.34;5029484;28;20117;-54
2022/12/01 05:03:43;;;;;;;49.30;28.60;;;;;;;5.09;100.00;102672.28;5029505;28;20087;-52
2022/12/01 05:06:11;;;;;;;49.72;29.15;;;;;;;5.09;100.00;102668.78;5029625;28;20072;-52
2022/12/01 05:08:37;;;;;;;46.30;28.60;;;;;;;5.09;100.00;102666.16;5033512;28;20127;-54
2022/12/01 05:11:05;;;;;;;45.60;29.65;;;;;;;5.08;100.00;102670.56;5032855;28;20109;-56
2022/12/01 05:13:30;;;;;;;49.33;28.38;;;;;;;5.08;100.00;102667.06;5032844;28;20048;-55
2022/12/01 05:16:15;;;;;;;47.65;28.33;;;;;;;5.10;100.00;102665.28;5033767;28;20049;-52
2022/12/01 05:18:40;;;;;;;49.88;29.25;;;;;;;5.09;100.00;102660.91;5021129;28;20447;-52
2022/12/01 05:21:08;;;;;;;45.72;28.98;;;;;;;5.08;100.00;102662.66;5033253;28;20079;-55
2022/12/01 05:23:35;;;;;;;45.90;27.98;;;;;;;5.07;100.00;102666.19;5032591;28;20443;-53
2022/12/01 05:26:02;;;;;;;47.83;27.90;;;;;;;5.09;100.00;102677.56;5022252;28;20021;-56
2022/12/01 05:28:28;;;;;;;46.30;28.58;;;;;;;5.09;100.00;102672.28;5028954;28;20116;-55
2022/12/01 05:30:54;;;;;;;48.53;29.65;;;;;;;5.09;100.00;102674.91;5033043;28;20109;-54
2022/12/01 05:33:21;;;;;;;49.13;28.92;;;;;;;5.09;100.00;102676.69;5025058;28;20480;-54
2022/12/01 05:35:47;;;;;;;47.15;27.63;;;;;;;5.08;100.00;102672.31;5033630;28;20025;-56
2022/12/01 05:38:13;;;;;;;46.45;28.33;;;;;;;5.08;100.00;102683.75;5033130;28;20033;-53
2022/12/01 05:40:38;;;;;;;48.65;29.35;;;;;;;5.08;100.00;102686.38;5039305;28;20048;-53
2022/12/01 05:43:04;;;;;;;47.63;28.98;;;;;;;5.10;100.00;102681.06;5033097;28;20083;-55
2022/12/01 05:45:30;;;;;;;50.80;28.75;;;;;;;5.08;100.00;102678.47;5032707;28;20458;-53
2022/12/01 05:47:57;;;;;;;47.50;30.27;;;;;;;5.09;100.00;102679.31;5033009;28;20030;-56
2022/12/01 05:50:23;;;;;;;45.88;28.08;;;;;;;5.08;100.00;102669.69;5035390;28;20048;-54
2022/12/01 05:52:49;;;;;;;48.33;28.40;;;;;;;5.09;100.00;102679.31;5032655;28;20041;-54
2022/12/01 05:55:14;;;;;;;43.83;27.08;;;;;;;5.09;100.00;102681.97;5035299;28;20030;-52
2022/12/01 05:57:40;;;;;;;48.75;27.73;;;;;;;5.07;100.00;102678.50;5032270;28;20032;-54
2022/12/01 06:00:07;;;;;;;49.83;27.85;;;;;;;5.07;100.00;102691.69;5032618;28;20029;-56
2022/12/01 06:02:32;;;;;;;45.15;27.33;;;;;;;5.06;100.00;102684.66;5032001;28;20106;-55
2022/12/01 06:04:58;;;;;;;44.92;26.60;;;;;;;5.07;100.00;102687.25;5032652;28;20061;-52
2022/12/01 06:07:24;;;;;;;46.63;28.33;;;;;;;5.07;100.00;102686.41;5032833;28;20028;-54
2022/12/01 06:09:51;;;;;;;46.25;28.25;;;;;;;5.06;100.00;102689.94;5032098;28;20033;-55
2022/12/01 06:12:17;;;;;;;44.20;28.15;;;;;;;5.06;100.00;102689.94;5030477;28;20032;-55
2022/12/01 06:14:42;;;;;;;46.92;29.30;;;;;;;5.06;100.00;102692.56;5032406;28;20038;-53
2022/12/01 06:17:08;;;;;;;46.55;28.73;;;;;;;5.06;100.00;102687.31;5031326;28;20087;-52
2022/12/01 06:19:33;;;;;;;49.90;28.65;;;;;;;5.05;100.00;102696.13;5030203;28;20034;-51
2022/12/01 06:21:58;;;;;;;49.38;29.25;;;;;;;5.06;100.00;102689.94;5033115;28;20026;-56
2022/12/01 06:24:24;;;;;;;45.60;29.35;;;;;;;5.04;100.00;102686.47;5031818;28;20033;-52
2022/12/01 06:26:49;;;;;;;49.20;28.83;;;;;;;5.03;100.00;102687.38;5032114;28;20128;-53
2022/12/01 06:29:14;;;;;;;47.88;28.92;;;;;;;5.03;100.00;102692.63;5025700;28;20117;-52
2022/12/01 06:31:40;;;;;;;47.70;29.08;;;;;;;5.03;100.00;102692.63;5032086;28;20425;-55
2022/12/01 06:34:05;;;;;;;47.03;28.25;;;;;;;5.03;100.00;102688.25;5031605;28;20029;-53
2022/12/01 06:36:30;;;;;;;48.58;28.40;;;;;;;5.02;100.00;102694.41;5024802;28;20379;-53
2022/12/01 06:38:56;;;;;;;48.08;28.70;;;;;;;5.02;100.00;102690.91;5031538;28;20109;-55
2022/12/01 06:41:21;;;;;;;47.42;27.92;;;;;;;5.00;100.00;102688.31;5035259;28;20108;-55
2022/12/01 06:43:46;;;;;;;52.83;28.67;;;;;;;4.99;100.00;102690.06;5031717;28;20112;-55
2022/12/01 06:46:12;;;;;;;51.17;28.80;;;;;;;5.00;100.00;102693.59;5026426;28;20037;-52
2022/12/01 06:48:37;;;;;;;52.78;30.33;;;;;;;5.01;100.00;102690.03;5029052;28;20048;-56
2022/12/01 06:51:03;;;;;;;51.55;28.45;;;;;;;4.99;100.00;102691.84;5031503;28;20095;-51
2022/12/01 06:53:29;;;;;;;46.67;26.98;;;;;;;4.98;100.00;102695.41;5031412;28;20079;-56
2022/12/01 06:55:59;;;;;;;48.08;28.33;;;;;;;4.98;100.00;102701.53;5032284;28;20034;-52
2022/12/01 06:58:25;;;;;;;50.25;28.92;;;;;;;4.96;100.00;102705.97;5031057;28;20029;-52
2022/12/01 07:00:50;;;;;;;49.50;28.48;;;;;;;4.97;100.00;102712.94;5031756;28;20045;-53
2022/12/01 07:03:15;;;;;;;49.65;28.58;;;;;;;4.96;100.00;102708.59;5032356;28;20125;-55
2022/12/01 07:05:40;;;;;;;52.47;28.38;;;;;;;4.96;100.00;102716.50;5027055;28;20443;-55
2022/12/01 07:08:06;;;;;;;50.22;29.17;;;;;;;4.96;100.00;102715.63;5036554;28;20021;-56
2022/12/01 07:10:31;;;;;;;50.58;28.10;;;;;;;4.95;100.00;102720.03;5032585;28;20048;-54
2022/12/01 07:12:57;;;;;;;52.10;28.73;;;;;;;4.96;100.00;102721.78;5035193;28;20026;-51
2022/12/01 07:15:23;;;;;;;51.58;29.35;;;;;;;4.94;100.00;102722.69;5030344;28;20021;-51
2022/12/01 07:17:48;;;;;;;51.95;27.80;;;;;;;4.95;100.00;102725.28;5030783;28;20029;-51
2022/12/01 07:20:14;;;;;;;54.63;29.15;;;;;;;4.96;100.00;102724.41;5013452;28;20037;-52
2022/12/01 07:22:41;;;;;;;52.17;28.50;;;;;;;4.94;100.00;102726.19;5016794;28;20523;-51
2022/12/01 07:25:07;;;;;;;50.38;29.20;;;;;;;4.96;100.00;102727.03;5015346;28;20124;-50
2022/12/01 07:27:33;;;;;;;51.72;29.70;;;;;;;4.96;100.00;102732.31;5020462;28;20049;-54
2022/12/01 07:29:58;;;;;;;50.20;28.77;;;;;;;4.98;100.00;102738.38;5022624;28;20046;-52
2022/12/01 07:32:23;;;;;;;47.35;28.27;;;;;;;4.97;100.00;102728.75;5031120;28;20037;-52
2022/12/01 07:34:48;;;;;;;52.78;28.15;;;;;;;4.97;100.00;102739.28;5028018;28;20029;-52
2022/12/01 07:37:14;;;;;;;50.28;27.98;;;;;;;4.99;100.00;102733.97;5022354;28;20044;-51
2022/12/01 07:39:39;;;;;;;51.78;27.63;;;;;;;4.99;100.00;102728.72;5030291;28;20048;-51
2022/12/01 07:42:04;;;;;;;49.53;27.25;;;;;;;5.00;100.00;102739.22;5027459;28;20040;-54
2022/12/01 07:44:30;;;;;;;52.40;28.20;;;;;;;4.99;100.00;102737.47;5029806;28;20053;-54
2022/12/01 07:46:55;;;;;;;48.13;27.25;;;;;;;4.99;100.00;102745.38;5012667;28;20403;-52
2022/12/01 07:49:20;;;;;;;47.33;28.00;;;;;;;5.02;100.00;102743.59;5017723;28;20488;-52
2022/12/01 07:51:45;;;;;;;48.60;27.13;;;;;;;5.01;100.00;102745.34;5018648;28;20048;-52
2022/12/01 07:54:13;;;;;;;46.63;26.50;;;;;;;5.00;100.00;102747.13;5016946;28;20148;-52
2022/12/01 07:56:38;;;;;;;49.67;27.10;;;;;;;5.02;100.00;102748.84;5016020;28;20437;-52
2022/12/01 07:59:03;;;;;;;52.30;28.27;;;;;;;5.02;100.00;102744.44;5019906;28;20029;-51
2022/12/01 08:01:29;;;;;;;51.20;28.20;;;;;;;5.04;100.00;102744.41;5027064;28;20049;-56
2022/12/01 08:03:56;;;;;;;50.97;28.30;;;;;;;5.05;100.00;102746.16;5026326;28;20033;-50
2022/12/01 08:06:23;;;;;;;47.28;27.35;;;;;;;5.05;100.00;102752.28;5017542;28;20088;-52
2022/12/01 08:08:48;;;;;;;45.58;26.85;;;;;;;5.07;100.00;102760.16;5028247;28;20079;-53
2022/12/01 08:11:19;;;;;;;54.42;27.73;;;;;;;5.06;100.00;102764.53;5028353;28;20037;-52
2022/12/01 08:13:45;;;;;;;44.60;26.85;;;;;;;5.08;100.00;102761.88;5027776;28;20025;-53
2022/12/01 08:16:13;;;;;;;47.88;27.77;;;;;;;5.09;100.00;102759.19;5030494;28;20028;-53
2022/12/01 08:18:40;;;;;;;51.17;28.63;;;;;;;5.11;100.00;102765.31;5030799;28;20483;-51
2022/12/01 08:21:07;;;;;;;54.00;28.90;;;;;;;5.13;100.00;102770.53;5036250;28;20056;-52
2022/12/01 08:23:32;;;;;;;48.08;28.83;;;;;;;5.13;100.00;102766.16;5032919;28;20029;-55
2022/12/01 08:26:07;;;;;;;51.10;28.95;;;;;;;5.12;100.00;102759.13;5022357;28;20146;-52
2022/12/01 08:28:35;;;;;;;50.80;28.05;;;;;;;5.16;100.00;102762.56;5031913;28;20467;-50
2022/12/01 08:31:12;;;;;;;49.33;27.95;;;;;;;5.17;100.00;102770.44;5029228;28;20040;-52
2022/12/01 08:33:37;;;;;;;48.10;28.20;;;;;;;5.17;100.00;102774.84;5028198;28;20029;-50
2022/12/01 08:36:04;;;;;;;47.58;27.88;;;;;;;5.18;100.00;102773.97;5031671;28;20017;-51
2022/12/01 08:38:29;;;;;;;50.38;29.35;;;;;;;5.19;100.00;102775.66;5030887;28;20437;-52
2022/12/01 08:41:02;;;;;;;48.15;28.75;;;;;;;5.19;100.00;102773.88;5028952;28;20077;-53
2022/12/01 08:43:28;;;;;;;49.55;27.98;;;;;;;5.21;100.00;102776.50;5031639;28;20049;-51
2022/12/01 08:45:56;;;;;;;52.45;29.20;;;;;;;5.24;100.00;102772.94;5034345;28;20030;-52
2022/12/01 08:48:22;;;;;;;47.43;29.57;;;;;;;5.25;100.00;102779.94;5027782;28;20041;-53
2022/12/01 08:50:47;;;;;;;47.58;28.73;;;;;;;5.25;100.00;102778.16;5034312;28;20034;-52
2022/12/01 08:53:12;;;;;;;50.53;28.83;;;;;;;5.27;100.00;102775.50;5033981;28;20365;-51
2022/12/01 08:55:38;;;;;;;49.38;29.60;;;;;;;5.27;100.00;102781.63;5013793;28;20033;-55
2022/12/01 08:58:03;;;;;;;49.97;29.73;;;;;;;5.28;100.00;102783.38;5013997;28;20037;-50
2022/12/01 09:00:28;;;;;;;49.42;29.10;;;;;;;5.29;100.00;102774.53;5032690;28;20519;-53
2022/12/01 09:02:53;;;;;;;46.88;28.48;;;;;;;5.30;100.00;102771.03;5024476;28;20092;-53
2022/12/01 09:05:19;;;;;;;47.92;28.85;;;;;;;5.32;100.00;102771.00;5030963;28;20021;-53
2022/12/01 09:08:29;;;;;;;48.00;28.77;;;;;;;5.32;100.00;102777.13;5032302;28;20029;-52
2022/12/01 09:10:29;;;;;;;45.25;28.75;;;;;;;5.34;100.00;102777.09;5032648;28;20183;-53
2022/12/01 09:12:54;;;;;;;51.85;29.98;;;;;;;5.34;100.00;102777.94;5020351;28;20029;-51
2022/12/01 09:15:20;;;;;;;45.60;29.20;;;;;;;5.35;100.00;102779.69;5021264;28;20053;-53
2022/12/01 09:17:45;;;;;;;49.25;29.02;;;;;;;5.37;100.00;102777.00;5034079;28;20095;-52
2022/12/01 09:20:11;;;;;;;48.17;28.58;;;;;;;5.38;100.00;102776.13;5034391;28;20076;-50
2022/12/01 09:22:36;;;;;;;45.05;27.48;;;;;;;5.39;100.00;102777.84;5033639;28;20388;-54
2022/12/01 09:25:01;;;;;;;42.83;28.65;;;;;;;5.40;100.00;102786.63;5033971;28;20097;-52
2022/12/01 09:27:27;;;;;;;48.65;29.45;;;;;;;5.43;100.00;102789.16;5028015;28;20041;-53
2022/12/01 09:29:52;;;;;;;47.63;30.08;;;;;;;5.46;100.00;102789.09;5028330;28;20033;-51
2022/12/01 09:32:17;;;;;;;47.25;29.33;;;;;;;5.48;100.00;102782.00;5034204;28;20021;-51
2022/12/01 09:34:42;;;;;;;45.53;27.88;;;;;;;5.49;100.00;102783.75;5034275;28;20044;-52
2022/12/01 09:37:08;;;;;;;49.38;29.30;;;;;;;5.51;100.00;102792.47;5024602;28;20038;-53
2022/12/01 09:39:33;;;;;;;46.95;29.58;;;;;;;5.51;100.00;102796.00;5033982;28;20030;-51
2022/12/01 09:42:04;;;;;;;48.45;29.35;;;;;;;5.54;100.00;102797.69;5033920;28;20502;-52
2022/12/01 09:44:35;;;;;;;45.70;29.30;;;;;;;5.56;100.00;102795.88;5034111;28;20441;-53
2022/12/01 09:47:17;;;;;;;46.20;29.10;;;;;;;5.59;100.00;102790.53;5033600;28;20033;-52
2022/12/01 09:49:54;;;;;;;43.80;29.10;;;;;;;5.61;100.00;102790.50;5025875;28;20479;-54
2022/12/01 09:52:21;;;;;;;51.58;30.90;;;;;;;5.62;100.00;102790.47;5032113;28;20038;-52
2022/12/01 09:54:47;;;;;;;47.13;29.13;;;;;;;5.65;100.00;102784.25;5034016;28;20029;-53
2022/12/01 09:57:22;;;;;;;47.78;29.55;;;;;;;5.66;100.00;102788.63;5034021;28;20036;-51
2022/12/01 09:59:50;;;;;;;47.58;30.35;;;;;;;5.68;100.00;102773.63;5008180;28;20036;-54
2022/12/01 10:02:26;;;;;;;49.40;29.80;;;;;;;5.71;100.00;102782.34;5033816;28;20044;-52
2022/12/01 10:04:53;;;;;;;50.40;30.15;;;;;;;5.74;100.00;102776.09;5033728;28;20088;-53
2022/12/01 10:07:50;;;;;;;51.35;30.65;;;;;;;5.81;100.00;102784.72;5025293;28;20025;-53
2022/12/01 10:10:33;;;;;;;48.45;30.00;;;;;;;5.81;99.91;102775.06;5023180;28;20017;-52
2022/12/01 10:12:59;;;;;;;47.95;30.30;;;;;;;5.81;99.88;102771.53;5020983;28;20079;-55
2022/12/01 10:15:46;;;;;;;49.00;29.90;;;;;;;5.81;99.69;102766.28;5033776;28;20155;-53
2022/12/01 10:18:17;;;;;;;52.03;29.77;;;;;;;5.84;99.19;102776.75;5033240;28;20109;-53
2022/12/01 10:21:06;;;;;;;47.08;29.25;;;;;;;5.85;98.73;102775.84;5025466;28;20037;-51
2022/12/01 10:24:04;;;;;;;47.80;29.75;;;;;;;5.87;98.53;102769.63;5033672;28;20117;-52
2022/12/01 10:27:02;;;;;;;48.15;29.15;;;;;;;5.86;98.20;102764.38;5029807;28;20060;-55
2022/12/01 10:30:07;;;;;;;43.65;28.83;;;;;;;5.90;98.01;102763.41;5032015;28;20490;-53
2022/12/01 10:32:41;;;;;;;49.88;30.65;;;;;;;5.93;97.85;102774.75;5012774;28;20052;-53
2022/12/01 10:35:11;;;;;;;48.53;30.42;;;;;;;5.94;97.92;102762.41;5026962;28;20372;-52
2022/12/01 10:37:37;;;;;;;46.25;30.55;;;;;;;5.98;98.08;102761.47;5033407;28;20072;-52
2022/12/01 10:40:02;;;;;;;48.28;29.92;;;;;;;5.99;97.46;102757.91;5033056;28;20122;-53
2022/12/01 10:42:38;;;;;;;47.58;31.23;;;;;;;6.01;96.91;102758.75;5033306;28;20030;-51
2022/12/01 10:45:14;;;;;;;49.60;30.65;;;;;;;6.05;97.51;102747.19;5032952;28;20037;-54
2022/12/01 10:48:08;;;;;;;50.08;30.90;;;;;;;6.10;98.23;102747.09;5033056;28;20048;-54
2022/12/01 10:50:34;;;;;;;47.72;30.77;;;;;;;6.08;96.59;102743.63;5033330;28;20055;-51
2022/12/01 10:53:00;;;;;;;51.97;31.10;;;;;;;6.10;96.76;102737.38;5043505;28;20575;-53
2022/12/01 10:55:29;;;;;;;48.15;29.20;;;;;;;6.12;95.98;102745.25;5033336;28;20088;-53
2022/12/01 10:57:58;;;;;;;51.38;31.33;;;;;;;6.16;96.63;102746.03;5032335;28;20037;-54
2022/12/01 11:00:26;;;;;;;46.10;30.38;;;;;;;6.20;96.04;102745.06;5032806;28;20099;-52
2022/12/01 11:02:51;;;;;;;47.47;30.92;;;;;;;6.24;96.41;102744.91;5032221;28;20479;-52
2022/12/01 11:05:27;;;;;;;45.88;29.65;;;;;;;6.29;96.28;102744.78;5031990;28;20097;-54
2022/12/01 11:07:52;;;;;;;46.63;30.48;;;;;;;6.33;96.46;102743.81;5024947;28;20033;-55
2022/12/01 11:10:36;;;;;;;48.22;31.05;;;;;;;6.40;97.05;102741.88;5017565;28;20401;-52
2022/12/01 11:13:03;;;;;;;44.92;30.48;;;;;;;6.43;97.52;102740.00;5014121;28;20383;-52
2022/12/01 11:15:38;;;;;;;45.58;30.98;;;;;;;6.51;97.60;102741.53;5017576;28;20377;-52
2022/12/01 11:18:22;;;;;;;46.85;31.17;;;;;;;6.57;98.25;102739.59;4990690;28;20493;-53
2022/12/01 11:21:04;;;;;;;49.90;31.63;;;;;;;6.59;97.81;102736.91;5014260;28;20026;-51